Time;durP1;ratioP1;P1;durP2;ratioP2;P2;SDS_P1;SDS_P2;PMS_P1;PMS_P2;Temp;Humidity;BMP_temperature;BMP_pressure;BME280_temperature;BME280_humidity;BME280_pressure;Samples;Min_cycle;Max_cycle;Signal;HPM_P1;HPM_P2
2021/04/21 00:02:26;;;;;;;18.57;10.40;;;;;;;5.86;75.55;96397.01;1725408;83;21139;-85
2021/04/21 00:04:55;;;;;;;13.55;9.78;;;;;;;5.82;75.62;96405.14;1716969;83;21518;-85
2021/04/21 00:07:24;;;;;;;15.72;10.03;;;;;;;5.74;75.52;96398.50;1728166;83;21100;-85
2021/04/21 00:09:54;;;;;;;12.37;8.58;;;;;;;5.70;75.52;96392.17;1724834;83;21163;-85
2021/04/21 00:12:23;;;;;;;18.15;10.05;;;;;;;5.69;75.84;96391.90;1726396;82;21208;-85
2021/04/21 00:14:53;;;;;;;12.00;7.78;;;;;;;5.72;75.96;96386.66;1702089;83;21624;-85
2021/04/21 00:17:22;;;;;;;14.27;9.07;;;;;;;5.68;75.84;96377.16;1714619;82;21170;-85
2021/04/21 00:19:53;;;;;;;12.75;7.83;;;;;;;5.72;75.83;96380.87;1703557;84;21182;-84
2021/04/21 00:22:23;;;;;;;11.85;7.90;;;;;;;5.71;75.99;96372.71;1705531;84;21120;-84
2021/04/21 00:24:53;;;;;;;12.45;8.48;;;;;;;5.74;75.88;96371.41;1711880;84;21146;-85
2021/04/21 00:27:24;;;;;;;11.22;7.50;;;;;;;5.78;75.80;96364.09;1709769;84;21124;-85
2021/04/21 00:29:53;;;;;;;;;;;;;;;5.87;75.41;96362.55;1687638;84;21165;-85
2021/04/21 00:32:25;;;;;;;16.73;8.90;;;;;;;5.90;75.25;96356.80;1714133;83;20150;-85
2021/04/21 00:34:56;;;;;;;10.72;6.97;;;;;;;5.85;75.17;96358.07;1709105;84;21100;-84
2021/04/21 00:37:27;;;;;;;;;;;;;;;5.87;74.96;96359.92;1709696;83;21150;-85
2021/04/21 00:39:56;;;;;;;14.25;8.88;;;;;;;5.91;74.87;96351.84;1706373;84;20130;-84
2021/04/21 00:42:43;;;;;;;15.72;8.38;;;;;;;5.92;74.79;96353.42;1713293;84;21526;-84
2021/04/21 00:45:15;;;;;;;15.13;8.10;;;;;;;5.89;74.88;96347.30;1703867;84;21166;-85
2021/04/21 00:48:03;;;;;;;12.73;8.88;;;;;;;5.84;75.04;96355.17;1719624;82;21096;-84
2021/04/21 00:50:58;;;;;;;14.90;9.33;;;;;;;5.80;75.26;96348.84;1710845;83;21167;-85
2021/04/21 00:53:45;;;;;;;10.28;5.60;;;;;;;5.79;75.29;96353.05;1698972;84;21131;-84
2021/04/21 00:56:39;;;;;;;10.13;6.72;;;;;;;5.76;75.35;96342.48;1728173;82;21147;-85
2021/04/21 00:59:26;;;;;;;11.25;7.17;;;;;;;5.77;75.49;96348.05;1708193;83;21192;-84
2021/04/21 01:01:57;;;;;;;11.45;7.22;;;;;;;5.77;75.48;96348.05;1695914;84;21156;-84
2021/04/21 01:04:26;;;;;;;13.28;7.87;;;;;;;5.78;75.43;96347.52;1712568;84;21139;-84
2021/04/21 01:06:55;;;;;;;9.38;5.10;;;;;;;5.76;75.48;96354.32;1702220;83;21154;-84
2021/04/21 01:09:24;;;;;;;9.98;6.70;;;;;;;5.81;75.01;96340.43;1693021;83;21198;-84
2021/04/21 01:12:02;;;;;;;9.58;6.90;;;;;;;5.92;74.83;96342.11;1672246;83;21169;-84
2021/04/21 01:14:40;;;;;;;11.03;7.97;;;;;;;5.90;74.70;96343.66;1723967;82;21124;-84
2021/04/21 01:17:12;;;;;;;11.03;6.78;;;;;;;5.83;74.72;96344.91;1770626;81;21443;-84
2021/04/21 01:19:59;;;;;;;11.33;7.80;;;;;;;5.77;74.98;96351.16;1762899;80;21187;-84
2021/04/21 01:22:50;;;;;;;12.65;8.23;;;;;;;5.71;75.28;96350.36;1774528;80;21107;-84
2021/04/21 01:25:28;;;;;;;6.92;4.60;;;;;;;5.69;75.62;96344.56;1764879;80;21132;-84
2021/04/21 01:27:59;;;;;;;11.28;7.72;;;;;;;5.86;75.45;96345.19;1718078;83;21124;-84
2021/04/21 01:30:29;;;;;;;11.35;7.08;;;;;;;6.07;74.98;96347.45;1708097;83;21545;-84
2021/04/21 01:33:04;;;;;;;11.15;6.90;;;;;;;6.10;74.84;96352.20;1708278;84;21496;-84
2021/04/21 01:35:33;;;;;;;10.78;6.53;;;;;;;6.08;74.75;96349.56;1696950;84;21150;-84
2021/04/21 01:38:03;;;;;;;10.80;6.60;;;;;;;6.11;74.64;96358.25;1686061;84;21126;-84
2021/04/21 01:40:42;;;;;;;12.37;8.53;;;;;;;6.17;74.52;96359.84;1717061;82;21483;-84
2021/04/21 01:43:23;;;;;;;10.93;8.20;;;;;;;6.22;74.41;96352.79;1722371;83;21162;-84
2021/04/21 01:45:55;;;;;;;12.43;7.47;;;;;;;6.31;74.19;96354.91;1733879;83;21146;-84
2021/04/21 01:48:26;;;;;;;12.23;7.37;;;;;;;6.35;74.01;96345.47;1700575;84;21117;-84
2021/04/21 01:50:54;;;;;;;13.15;8.78;;;;;;;6.38;73.97;96354.95;1731852;81;21111;-84
2021/04/21 01:53:44;;;;;;;12.95;8.65;;;;;;;6.31;73.93;96349.65;1723305;83;21115;-85
2021/04/21 01:56:45;;;;;;;13.40;8.48;;;;;;;6.21;73.95;96351.20;1702451;84;21132;-84
2021/04/21 01:59:38;;;;;;;10.88;7.67;;;;;;;6.09;74.14;96357.20;1709991;83;21201;-84
2021/04/21 02:02:19;;;;;;;12.40;8.28;;;;;;;5.99;74.51;96360.29;1724115;82;21124;-84
2021/04/21 02:05:16;;;;;;;11.63;7.78;;;;;;;5.94;74.86;96355.80;1718350;82;21173;-84
2021/04/21 02:08:13;;;;;;;11.90;8.83;;;;;;;6.03;75.04;96360.83;1722103;82;21119;-85
2021/04/21 02:10:57;;;;;;;12.98;9.30;;;;;;;6.04;75.11;96355.05;1721920;83;21206;-84
2021/04/21 02:13:39;;;;;;;12.80;8.80;;;;;;;6.21;75.08;96356.47;1690804;83;21606;-84
2021/04/21 02:16:29;;;;;;;11.10;7.53;;;;;;;6.29;74.97;96355.17;1707982;84;21553;-84
2021/04/21 02:19:23;;;;;;;14.93;10.80;;;;;;;6.29;75.06;96356.48;1713612;82;21208;-84
2021/04/21 02:22:15;;;;;;;15.40;10.70;;;;;;;6.25;74.99;96358.06;1707455;84;21530;-84
2021/04/21 02:25:16;;;;;;;16.77;11.00;;;;;;;6.24;75.01;96361.22;1762062;81;21102;-85
2021/04/21 02:28:06;;;;;;;18.85;10.85;;;;;;;6.31;75.04;96359.66;1769380;80;21115;-84
2021/04/21 02:31:14;;;;;;;15.07;10.43;;;;;;;6.34;74.92;96361.01;1766325;80;21584;-84
2021/04/21 02:33:58;;;;;;;13.10;9.28;;;;;;;6.38;74.88;96361.55;1698193;83;21175;-84
2021/04/21 02:36:45;;;;;;;17.00;11.80;;;;;;;6.35;74.97;96356.80;1676422;83;21126;-84
2021/04/21 02:39:42;;;;;;;17.40;11.80;;;;;;;6.27;75.22;96366.48;1713078;82;21584;-84
2021/04/21 02:42:17;;;;;;;17.95;11.65;;;;;;;6.22;75.42;96367.79;1713020;83;21164;-84
2021/04/21 02:44:58;;;;;;;15.10;10.70;;;;;;;6.11;75.74;96359.56;1725620;82;21127;-84
2021/04/21 02:47:46;;;;;;;17.90;10.93;;;;;;;5.98;75.98;96356.87;1719408;82;21561;-84
2021/04/21 02:50:41;;;;;;;15.60;9.65;;;;;;;5.84;76.35;96358.33;1713321;83;21578;-84
2021/04/21 02:53:56;;;;;;;18.67;11.10;;;;;;;5.69;76.79;96368.23;1713368;84;21184;-84
2021/04/21 02:56:38;;;;;;;14.78;10.70;;;;;;;5.59;77.00;96361.58;1709548;84;21141;-84
2021/04/21 02:59:35;;;;;;;15.38;11.12;;;;;;;5.55;77.08;96364.45;1718171;82;21232;-84
2021/04/21 03:02:18;;;;;;;19.00;11.85;;;;;;;5.51;77.07;96362.05;1732465;82;21173;-84
2021/04/21 03:05:16;;;;;;;18.98;11.18;;;;;;;5.48;77.33;96363.84;1701813;82;21136;-83
2021/04/21 03:07:51;;;;;;;17.15;11.63;;;;;;;5.43;77.72;96350.67;1720619;82;21194;-84
2021/04/21 03:10:21;;;;;;;18.80;11.63;;;;;;;5.32;77.70;96363.73;1701924;83;21128;-83
2021/04/21 03:12:56;;;;;;;20.62;11.78;;;;;;;5.25;77.85;96360.53;1706978;82;21540;-84
2021/04/21 03:15:26;;;;;;;21.82;13.45;;;;;;;5.23;78.31;96350.00;1724671;83;21144;-83
2021/04/21 03:17:56;;;;;;;11.73;7.53;;;;;;;5.26;78.57;96358.17;1779869;80;21115;-84
2021/04/21 03:20:25;;;;;;;18.45;11.15;;;;;;;5.36;78.77;96355.64;1742701;80;21494;-83
2021/04/21 03:22:59;;;;;;;17.07;10.95;;;;;;;5.45;78.98;96354.63;1752157;81;21129;-83
2021/04/21 03:25:40;;;;;;;15.25;9.93;;;;;;;5.56;79.02;96347.63;1739809;81;21122;-83
2021/04/21 03:28:10;;;;;;;17.87;12.50;;;;;;;5.62;78.61;96337.40;1715255;83;21143;-84
2021/04/21 03:30:39;;;;;;;19.85;11.18;;;;;;;5.60;78.33;96351.33;1737117;82;21215;-84
2021/04/21 03:33:20;;;;;;;14.80;9.90;;;;;;;5.55;78.21;96353.41;1743419;81;21140;-84
2021/04/21 03:35:51;;;;;;;15.80;8.83;;;;;;;5.50;78.41;96356.01;1738628;80;21123;-84
2021/04/21 03:38:21;;;;;;;16.75;10.15;;;;;;;5.47;78.56;96350.44;1740197;80;22137;-84
2021/04/21 03:40:49;;;;;;;11.33;8.05;;;;;;;5.47;78.45;96351.75;1728438;82;21151;-84
2021/04/21 03:43:16;;;;;;;15.72;9.33;;;;;;;5.46;78.55;96354.11;1747684;81;21127;-84
2021/04/21 03:45:49;;;;;;;15.78;10.38;;;;;;;5.46;78.53;96355.42;1762448;81;21168;-84
2021/04/21 03:48:18;;;;;;;12.78;7.30;;;;;;;5.45;78.51;96361.73;1732504;82;21173;-84
2021/04/21 03:50:50;;;;;;;14.70;9.60;;;;;;;5.40;78.82;96355.92;1743029;81;21119;-84
2021/04/21 03:53:20;;;;;;;14.28;8.20;;;;;;;5.36;78.85;96357.48;1731694;82;21115;-84
2021/04/21 03:55:49;;;;;;;13.60;8.18;;;;;;;5.39;78.90;96362.75;1741995;81;21161;-84
2021/04/21 03:58:22;;;;;;;13.68;7.62;;;;;;;5.40;78.90;96354.61;1763051;80;21715;-84
2021/04/21 04:01:03;;;;;;;12.28;8.13;;;;;;;5.42;78.90;96367.50;1764282;80;21172;-84
2021/04/21 04:03:33;;;;;;;13.28;8.18;;;;;;;5.41;78.71;96365.39;1733117;81;21478;-84
2021/04/21 04:06:13;;;;;;;16.57;10.32;;;;;;;5.44;78.80;96372.77;1724090;81;21479;-84
2021/04/21 04:09:01;;;;;;;17.32;12.30;;;;;;;5.49;78.78;96369.38;1752737;80;21207;-84
2021/04/21 04:11:32;;;;;;;16.50;10.32;;;;;;;5.56;78.63;96379.17;1744109;82;21512;-84
2021/04/21 04:14:16;;;;;;;18.30;12.73;;;;;;;5.62;78.51;96380.78;1724503;82;21189;-84
2021/04/21 04:16:45;;;;;;;20.45;13.32;;;;;;;5.66;78.38;96371.37;1714959;83;21148;-84
2021/04/21 04:19:14;;;;;;;15.38;11.03;;;;;;;5.70;78.29;96376.39;1720321;83;21175;-84
2021/04/21 04:21:43;;;;;;;14.10;8.98;;;;;;;5.73;78.15;96381.66;1714499;83;21253;-84
2021/04/21 04:24:15;;;;;;;12.05;8.60;;;;;;;5.69;77.95;96384.53;1770555;80;21513;-84
2021/04/21 04:26:44;;;;;;;16.00;10.40;;;;;;;5.64;77.98;96382.14;1770545;80;21107;-84
2021/04/21 04:29:11;;;;;;;15.70;10.60;;;;;;;5.65;77.99;96386.88;1771983;80;21542;-84
2021/04/21 04:31:40;;;;;;;18.37;12.00;;;;;;;5.63;78.08;96385.00;1777989;80;21096;-84
2021/04/21 04:34:10;;;;;;;18.85;12.98;;;;;;;5.61;78.04;96384.46;1778417;80;21108;-84
2021/04/21 04:36:40;;;;;;;17.75;11.85;;;;;;;5.59;78.08;96391.29;1760157;80;21535;-84
2021/04/21 04:39:09;;;;;;;13.18;9.80;;;;;;;5.60;78.20;96389.45;1771630;80;21190;-84
2021/04/21 04:41:38;;;;;;;19.20;12.33;;;;;;;5.60;78.27;96388.14;1778522;80;21463;-84
2021/04/21 04:44:07;;;;;;;13.98;10.32;;;;;;;5.61;78.20;96391.03;1771752;80;21140;-84
2021/04/21 04:46:42;;;;;;;20.30;11.90;;;;;;;5.63;78.21;96398.97;1722061;82;21111;-84
2021/04/21 04:49:13;;;;;;;16.25;10.82;;;;;;;5.70;78.26;96405.84;1731361;82;21210;-84
2021/04/21 04:51:47;;;;;;;19.60;12.43;;;;;;;5.76;78.23;96409.55;1723726;81;21127;-84
2021/04/21 04:54:16;;;;;;;21.37;12.53;;;;;;;5.85;78.20;96405.95;1737220;82;21164;-84
2021/04/21 04:56:46;;;;;;;17.10;11.22;;;;;;;6.00;77.99;96396.87;1740644;82;21167;-84
2021/04/21 04:59:14;;;;;;;19.45;12.45;;;;;;;6.13;77.71;96406.16;1730335;82;21184;-84
2021/04/21 05:02:00;;;;;;;20.17;12.13;;;;;;;6.25;77.57;96403.60;1746923;81;21143;-84
2021/04/21 05:04:51;;;;;;;15.15;10.40;;;;;;;6.36;77.22;96409.72;1789779;80;21108;-84
2021/04/21 05:07:24;;;;;;;16.40;11.78;;;;;;;6.46;77.00;96408.42;1773276;80;21162;-84
2021/04/21 05:09:54;;;;;;;18.17;13.08;;;;;;;6.54;76.85;96411.11;1766162;80;21155;-84
2021/04/21 05:12:23;;;;;;;18.50;11.95;;;;;;;6.59;76.71;96399.27;1785389;80;21147;-84
2021/04/21 05:14:55;;;;;;;15.40;10.90;;;;;;;6.64;76.52;96401.15;1745871;80;21142;-84
2021/04/21 05:17:50;;;;;;;19.40;12.47;;;;;;;6.67;76.39;96406.69;1785604;79;21099;-84
2021/04/21 05:20:53;;;;;;;14.75;10.80;;;;;;;6.70;76.29;96401.42;1776623;80;21124;-84
2021/04/21 05:23:46;;;;;;;17.02;11.25;;;;;;;6.69;75.93;96409.06;1784294;80;21169;-85
2021/04/21 05:29:50;;;;;;;16.65;11.48;;;;;;;6.76;76.06;96410.95;1845326;77;23573;-83
2021/04/21 05:32:59;;;;;;;19.17;12.13;;;;;;;6.75;75.79;96425.14;1794997;78;21234;-84
2021/04/21 05:35:46;;;;;;;20.80;12.68;;;;;;;6.72;75.52;96411.17;1780073;80;21146;-84
2021/04/21 05:39:01;;;;;;;12.70;7.87;;;;;;;6.75;75.57;96419.34;1783035;80;21208;-84
2021/04/21 05:42:14;;;;;;;14.73;8.68;;;;;;;6.75;74.90;96415.39;1777195;80;21153;-84
2021/04/21 05:45:20;;;;;;;14.43;9.03;;;;;;;6.74;74.52;96398.53;1790328;78;21461;-84
2021/04/21 05:48:12;;;;;;;13.38;9.05;;;;;;;6.77;74.35;96413.32;1790659;78;21148;-84
2021/04/21 05:51:02;;;;;;;13.48;8.23;;;;;;;6.82;74.40;96426.50;1806233;79;21171;-84
2021/04/21 05:53:51;;;;;;;14.98;10.95;;;;;;;6.99;73.93;96418.37;1794998;80;21106;-84
2021/04/21 05:56:52;;;;;;;10.08;7.10;;;;;;;7.38;73.62;96415.30;1770316;78;21129;-84
2021/04/21 06:00:04;;;;;;;15.50;10.68;;;;;;;7.31;72.67;96425.30;1782738;78;21129;-84
2021/04/21 06:02:34;;;;;;;12.50;8.35;;;;;;;7.21;72.74;96426.61;1766627;80;21129;-84
2021/04/21 06:05:12;;;;;;;18.50;10.13;;;;;;;7.09;72.71;96422.36;1809171;78;21493;-84
2021/04/21 06:07:45;;;;;;;13.38;8.05;;;;;;;6.98;73.26;96415.48;1794083;78;21113;-85
2021/04/21 06:10:28;;;;;;;10.10;7.08;;;;;;;6.94;73.68;96421.01;1809095;78;21473;-84
2021/04/21 06:13:01;;;;;;;15.78;8.55;;;;;;;6.92;74.09;96420.48;1782581;80;21130;-84
2021/04/21 06:15:36;;;;;;;16.93;12.15;;;;;;;6.93;73.87;96395.71;1798122;78;21187;-84
2021/04/21 06:18:10;;;;;;;22.27;12.58;;;;;;;7.01;73.87;96417.59;1785501;78;21158;-83
2021/04/21 06:20:42;;;;;;;18.02;11.68;;;;;;;7.15;74.00;96418.67;1796922;78;21537;-84
2021/04/21 06:23:23;;;;;;;16.60;12.30;;;;;;;7.20;73.35;96415.28;1808065;78;21141;-83
2021/04/21 06:26:03;;;;;;;15.15;10.88;;;;;;;7.27;73.22;96417.65;1801886;79;21143;-84
2021/04/21 06:28:31;;;;;;;19.17;12.70;;;;;;;7.43;73.85;96421.36;1784017;78;21083;-83
2021/04/21 06:31:14;;;;;;;16.10;9.95;;;;;;;7.49;72.59;96418.22;1800991;78;21123;-83
2021/04/21 06:33:45;;;;;;;17.95;10.93;;;;;;;7.56;72.50;96410.82;1802631;78;21168;-84
2021/04/21 06:36:14;;;;;;;16.75;11.73;;;;;;;7.51;72.18;96401.59;1779099;78;21181;-84
2021/04/21 06:38:42;;;;;;;17.50;11.38;;;;;;;7.51;72.36;96420.06;1811169;78;21187;-84
2021/04/21 06:41:11;;;;;;;19.30;12.60;;;;;;;7.55;72.75;96415.05;1786920;78;21075;-84
2021/04/21 06:43:39;;;;;;;19.02;12.90;;;;;;;7.61;72.77;96412.16;1777918;80;21151;-84
2021/04/21 06:46:10;;;;;;;16.12;10.38;;;;;;;7.67;72.96;96415.05;1775445;80;21173;-84
2021/04/21 06:48:39;;;;;;;17.87;12.65;;;;;;;7.71;72.57;96416.09;1776376;78;21159;-84
2021/04/21 06:51:18;;;;;;;21.57;12.47;;;;;;;7.73;72.89;96419.26;1789201;78;21510;-84
2021/04/21 06:53:48;;;;;;;16.23;11.33;;;;;;;7.87;73.23;96411.60;1786227;78;21146;-84
2021/04/21 06:56:16;;;;;;;17.83;11.47;;;;;;;8.03;73.07;96413.19;1788766;78;21474;-83
2021/04/21 06:58:44;;;;;;;19.20;12.55;;;;;;;8.22;73.02;96408.13;1794592;78;21149;-84
2021/04/21 07:01:15;;;;;;;18.75;13.35;;;;;;;8.47;73.22;96411.80;1774982;78;21130;-84
2021/04/21 07:03:44;;;;;;;19.27;12.33;;;;;;;8.65;72.90;96415.17;1776494;80;21173;-84
2021/04/21 07:06:13;;;;;;;16.82;12.23;;;;;;;8.74;72.58;96413.55;1784342;78;21122;-84
2021/04/21 07:08:40;;;;;;;16.55;9.80;;;;;;;8.73;71.84;96415.94;1787618;80;21590;-84
2021/04/21 07:11:12;;;;;;;16.45;10.35;;;;;;;8.64;71.85;96414.91;1791913;78;21134;-84
2021/04/21 07:13:49;;;;;;;17.57;11.43;;;;;;;8.56;71.95;96413.59;1796654;78;21144;-84
2021/04/21 07:16:24;;;;;;;17.35;11.80;;;;;;;8.53;72.11;96414.67;1797405;78;21161;-84
2021/04/21 07:19:01;;;;;;;18.32;11.00;;;;;;;8.51;72.32;96415.48;1775491;78;21166;-83
2021/04/21 07:21:30;;;;;;;18.23;14.15;;;;;;;8.54;72.34;96417.05;1799897;78;21519;-84
2021/04/21 07:24:03;;;;;;;16.85;12.55;;;;;;;8.56;72.60;96410.17;1798376;78;21252;-84
2021/04/21 07:26:41;;;;;;;19.37;12.60;;;;;;;8.60;72.45;96409.91;1801823;79;21110;-84
2021/04/21 07:29:18;;;;;;;15.98;11.97;;;;;;;8.63;72.70;96418.61;1785388;80;21190;-84
2021/04/21 07:31:46;;;;;;;18.85;13.95;;;;;;;8.75;72.58;96420.42;1775851;80;21244;-84
2021/04/21 07:34:16;;;;;;;20.65;13.58;;;;;;;8.87;72.68;96428.05;1772337;80;21323;-84
2021/04/21 07:36:48;;;;;;;19.40;13.32;;;;;;;8.93;72.19;96427.73;1817046;78;21502;-84
2021/04/21 07:39:16;;;;;;;19.27;12.07;;;;;;;9.05;72.21;96429.27;1795190;78;21110;-84
2021/04/21 07:41:50;;;;;;;20.17;13.08;;;;;;;9.21;72.14;96431.55;1789480;80;21122;-84
2021/04/21 07:44:37;;;;;;;19.92;13.83;;;;;;;9.46;72.04;96427.97;1784278;80;21114;-84
2021/04/21 07:47:10;;;;;;;19.17;13.03;;;;;;;9.72;71.36;96430.44;1785760;78;21067;-84
2021/04/21 07:49:43;;;;;;;17.30;11.88;;;;;;;9.91;70.86;96434.52;1787104;80;21145;-83
2021/04/21 07:52:27;;;;;;;16.82;12.43;;;;;;;10.00;70.49;96432.86;1775285;80;21511;-83
2021/04/21 07:55:18;;;;;;;16.95;12.23;;;;;;;10.03;69.92;96432.30;1797787;80;21545;-84
2021/04/21 07:58:03;;;;;;;15.80;11.50;;;;;;;10.06;69.39;96438.36;1791146;80;21380;-84
2021/04/21 08:00:34;;;;;;;17.90;12.05;;;;;;;10.10;68.84;96437.52;1782159;78;21142;-84
2021/04/21 08:03:03;;;;;;;18.35;12.80;;;;;;;10.11;69.10;96439.09;1788136;78;21137;-84
2021/04/21 08:05:31;;;;;;;19.82;11.43;;;;;;;10.19;68.83;96436.38;1800483;78;21161;-84
2021/04/21 08:08:01;;;;;;;17.57;11.50;;;;;;;10.80;69.24;96442.39;1779783;78;21127;-84
2021/04/21 08:10:34;;;;;;;16.82;12.00;;;;;;;11.49;67.80;96444.94;1801408;78;21113;-84
2021/04/21 08:13:03;;;;;;;16.95;12.33;;;;;;;12.11;67.80;96431.55;1792073;78;21110;-84
2021/04/21 08:15:38;;;;;;;15.25;11.00;;;;;;;12.57;66.71;96436.04;1795070;78;21559;-84
2021/04/21 08:18:12;;;;;;;17.48;12.13;;;;;;;13.15;65.69;96435.42;1790947;80;21114;-84
2021/04/21 08:20:45;;;;;;;16.73;11.10;;;;;;;14.01;62.67;96432.15;1793467;78;21109;-84
2021/04/21 08:23:19;;;;;;;15.50;11.05;;;;;;;14.88;63.15;96432.58;1795211;80;21105;-84
2021/04/21 08:25:47;;;;;;;13.93;10.30;;;;;;;15.37;59.75;96438.12;1779769;78;21082;-84
2021/04/21 08:28:14;;;;;;;16.35;11.43;;;;;;;16.88;61.54;96431.59;1789054;78;21147;-85
2021/04/21 08:30:58;;;;;;;13.10;9.35;;;;;;;17.71;56.61;96419.41;1794262;78;21133;-85
2021/04/21 08:33:30;;;;;;;12.95;9.88;;;;;;;19.51;53.62;96428.38;1794289;79;21248;-84
2021/04/21 08:35:57;;;;;;;12.47;10.23;;;;;;;20.09;52.54;96420.81;1794131;78;21639;-84
2021/04/21 08:38:24;;;;;;;10.63;8.05;;;;;;;21.19;48.54;96418.17;1798011;79;21139;-84
2021/04/21 08:40:52;;;;;;;13.03;10.05;;;;;;;18.91;42.80;96421.41;1786084;79;21130;-84
2021/04/21 08:43:21;;;;;;;14.80;9.58;;;;;;;16.85;46.43;96426.09;1751119;80;21498;-83
2021/04/21 08:45:52;;;;;;;13.53;8.58;;;;;;;15.79;46.62;96428.58;1745646;81;21546;-83
2021/04/21 08:48:20;;;;;;;11.50;8.70;;;;;;;15.10;47.92;96420.48;1736075;81;21107;-83
2021/04/21 08:50:48;;;;;;;11.68;7.78;;;;;;;14.69;48.60;96433.63;1749645;81;21124;-83
2021/04/21 08:53:18;;;;;;;9.10;7.03;;;;;;;15.16;47.47;96427.23;1728206;81;21130;-83
2021/04/21 08:55:46;;;;;;;9.47;7.57;;;;;;;15.30;47.54;96434.56;1748727;81;21153;-83
2021/04/21 08:58:14;;;;;;;12.10;7.78;;;;;;;15.53;47.09;96433.89;1755306;80;21084;-83
2021/04/21 09:00:41;;;;;;;12.68;8.68;;;;;;;15.56;46.86;96434.59;1753836;81;21192;-83
2021/04/21 09:03:09;;;;;;;11.08;8.03;;;;;;;15.40;47.84;96430.26;1729621;82;21158;-83
2021/04/21 09:05:36;;;;;;;10.65;7.97;;;;;;;15.48;49.21;96434.02;1710208;82;21188;-83
2021/04/21 09:08:05;;;;;;;11.18;7.72;;;;;;;15.70;48.00;96428.56;1729261;82;21513;-84
2021/04/21 09:10:32;;;;;;;10.60;6.95;;;;;;;15.50;47.92;96427.05;1728766;82;21470;-83
2021/04/21 09:12:59;;;;;;;10.50;6.37;;;;;;;14.89;47.19;96431.48;1743821;82;21155;-83
2021/04/21 09:15:28;;;;;;;13.88;9.78;;;;;;;14.60;47.76;96440.80;1712119;82;21110;-83
2021/04/21 09:17:57;;;;;;;11.45;8.05;;;;;;;13.98;48.29;96429.31;1727931;82;21173;-84
2021/04/21 09:20:27;;;;;;;9.68;6.37;;;;;;;13.52;49.77;96428.52;1738792;82;21454;-83
2021/04/21 09:23:12;;;;;;;8.78;6.12;;;;;;;13.11;48.90;96431.24;1730121;82;21188;-83
2021/04/21 09:25:43;;;;;;;8.70;6.50;;;;;;;13.06;49.36;96424.67;1740826;81;21130;-83
2021/04/21 09:28:12;;;;;;;11.48;7.37;;;;;;;13.20;49.83;96436.66;1737995;82;21177;-83
2021/04/21 09:30:43;;;;;;;12.25;8.00;;;;;;;13.42;49.53;96429.28;1734908;81;21146;-83
2021/04/21 09:33:10;;;;;;;10.15;7.53;;;;;;;13.29;49.07;96429.55;1727194;82;21123;-83
2021/04/21 09:35:42;;;;;;;9.05;6.53;;;;;;;13.12;49.78;96428.03;1733545;81;21167;-83
2021/04/21 09:38:15;;;;;;;10.93;7.75;;;;;;;13.03;50.42;96428.72;1745294;81;21207;-83
2021/04/21 09:40:52;;;;;;;9.23;6.70;;;;;;;12.91;50.28;96421.78;1738890;81;21138;-83
2021/04/21 09:43:29;;;;;;;10.35;7.25;;;;;;;12.83;50.71;96425.16;1724076;81;21107;-83
2021/04/21 09:46:03;;;;;;;9.15;6.28;;;;;;;12.59;50.67;96425.89;1740167;81;21157;-83
2021/04/21 09:48:35;;;;;;;9.88;6.45;;;;;;;12.45;51.09;96420.56;1737992;81;21185;-83
2021/04/21 09:51:09;;;;;;;9.95;6.78;;;;;;;12.48;51.77;96420.75;1736950;81;21442;-83
2021/04/21 09:53:43;;;;;;;8.93;6.50;;;;;;;12.68;52.89;96417.48;1733556;82;21114;-83
2021/04/21 09:56:23;;;;;;;8.40;6.22;;;;;;;12.97;53.00;96413.96;1704388;82;21203;-84
2021/04/21 09:58:57;;;;;;;8.90;6.30;;;;;;;13.23;51.95;96409.44;1726334;81;21177;-83
2021/04/21 10:01:40;;;;;;;9.50;7.08;;;;;;;13.28;51.22;96410.67;1724806;82;21117;-84
2021/04/21 10:04:13;;;;;;;10.55;6.95;;;;;;;13.35;51.77;96409.70;1738575;81;21541;-84
2021/04/21 10:06:53;;;;;;;9.15;6.80;;;;;;;13.62;51.43;96405.63;1742461;81;21114;-84
2021/04/21 10:09:37;;;;;;;8.78;6.00;;;;;;;13.91;50.68;96401.73;1735549;81;21166;-84
2021/04/21 10:12:27;;;;;;;9.75;6.05;;;;;;;13.92;49.29;96397.98;1719686;82;21171;-84
2021/04/21 10:15:11;;;;;;;8.08;5.85;;;;;;;14.00;50.50;96397.26;1739344;81;21162;-83
2021/04/21 10:17:42;;;;;;;8.78;6.15;;;;;;;14.29;50.55;96390.67;1729508;81;21145;-83
2021/04/21 10:20:15;;;;;;;9.95;6.10;;;;;;;14.51;49.61;96389.31;1737053;81;21537;-83
2021/04/21 10:22:44;;;;;;;10.38;6.20;;;;;;;14.59;49.63;96390.42;1733720;81;21515;-83
2021/04/21 10:25:14;;;;;;;7.67;5.97;;;;;;;14.90;50.15;96382.34;1754313;81;21168;-83
2021/04/21 10:27:42;;;;;;;8.05;5.95;;;;;;;15.22;49.72;96379.27;1758740;81;21134;-83
2021/04/21 10:30:11;;;;;;;10.63;5.35;;;;;;;15.02;48.56;96379.86;1746988;81;21159;-83
2021/04/21 10:32:39;;;;;;;7.83;6.37;;;;;;;14.75;47.17;96373.67;1744797;81;21114;-83
2021/04/21 10:35:08;;;;;;;8.55;6.12;;;;;;;14.68;47.22;96378.69;1739305;81;21192;-83
2021/04/21 10:37:38;;;;;;;9.50;6.42;;;;;;;14.53;48.84;96383.12;1745018;81;21122;-83
2021/04/21 10:40:10;;;;;;;8.75;6.15;;;;;;;14.25;47.46;96377.95;1723622;82;21604;-83
2021/04/21 10:43:02;;;;;;;8.63;6.70;;;;;;;13.87;49.30;96381.59;1743790;82;21138;-83
2021/04/21 10:45:29;;;;;;;;;;;;;;;13.75;49.68;96371.23;1743377;81;21129;-83
2021/04/21 10:47:58;;;;;;;9.48;6.33;;;;;;;13.43;49.60;96363.73;1737365;81;20134;-83
2021/04/21 10:50:45;;;;;;;9.37;7.13;;;;;;;13.21;50.42;96375.67;1750250;81;21131;-83
2021/04/21 10:53:30;;;;;;;7.15;4.87;;;;;;;13.23;51.57;96374.31;1744999;81;21133;-83
2021/04/21 10:55:57;;;;;;;8.18;6.25;;;;;;;13.27;50.49;96363.84;1723982;81;21471;-83
2021/04/21 10:58:24;;;;;;;9.83;6.50;;;;;;;13.21;51.04;96367.69;1720893;81;21122;-83
2021/04/21 11:00:51;;;;;;;7.95;6.15;;;;;;;13.59;53.00;96372.94;1735131;81;21522;-83
2021/04/21 11:03:25;;;;;;;9.15;6.58;;;;;;;13.85;51.42;96355.00;1741942;81;21137;-83
2021/04/21 11:06:00;;;;;;;7.83;5.33;;;;;;;14.20;50.67;96361.28;1735029;81;21569;-83
2021/04/21 11:08:30;;;;;;;7.95;4.95;;;;;;;14.43;49.22;96353.47;1731305;81;21744;-84
2021/04/21 11:11:06;;;;;;;7.78;5.78;;;;;;;14.36;49.11;96342.48;1748596;81;21129;-84
2021/04/21 11:13:39;;;;;;;5.42;4.65;;;;;;;14.42;50.03;96341.78;1726021;81;21506;-83
2021/04/21 11:16:26;;;;;;;7.62;4.67;;;;;;;14.45;47.86;96322.52;1730891;82;21181;-83
2021/04/21 11:18:54;;;;;;;9.78;6.45;;;;;;;14.17;47.18;96321.37;1747261;81;21206;-84
2021/04/21 11:21:25;;;;;;;7.35;5.85;;;;;;;13.76;48.64;96340.84;1732503;82;21252;-84
2021/04/21 11:24:03;;;;;;;8.03;5.97;;;;;;;13.63;48.49;96333.94;1696745;82;21114;-84
2021/04/21 11:26:40;;;;;;;9.40;6.00;;;;;;;13.58;48.89;96331.95;1744187;81;21178;-84
2021/04/21 11:29:25;;;;;;;7.92;5.67;;;;;;;13.53;48.67;96331.55;1737706;82;21167;-84
2021/04/21 11:31:58;;;;;;;10.40;6.28;;;;;;;13.73;50.02;96328.13;1741762;82;21119;-84
2021/04/21 11:34:35;;;;;;;8.00;5.83;;;;;;;13.85;50.27;96320.36;1756205;82;21471;-84
2021/04/21 11:37:13;;;;;;;8.43;5.83;;;;;;;13.92;50.28;96316.70;1746352;82;21519;-84
2021/04/21 11:39:50;;;;;;;7.70;5.92;;;;;;;14.04;49.44;96314.25;1740228;82;21151;-84
2021/04/21 11:42:41;;;;;;;8.75;5.90;;;;;;;13.98;48.50;96314.70;1744726;82;21550;-83
2021/04/21 11:45:27;;;;;;;7.87;6.15;;;;;;;13.76;47.48;96310.20;1752838;82;21152;-83
2021/04/21 11:48:09;;;;;;;8.10;6.15;;;;;;;13.50;47.48;96308.16;1751381;82;21151;-84
2021/04/21 11:50:40;;;;;;;8.45;6.40;;;;;;;13.30;48.78;96313.44;1741332;82;21175;-84
2021/04/21 11:53:12;;;;;;;;;;;;;;;13.16;49.75;96320.66;1741245;82;21187;-83
2021/04/21 11:55:55;;;;;;;4.85;4.03;;;;;;;13.02;51.18;96326.57;1750581;82;20180;-83
2021/04/21 11:58:37;;;;;;;6.37;4.12;;;;;;;12.75;51.84;96317.56;1755238;82;21156;-84
2021/04/21 12:01:09;;;;;;;4.97;4.05;;;;;;;12.32;52.25;96342.92;1755549;82;21212;-83
2021/04/21 12:03:41;;;;;;;7.33;3.20;;;;;;;12.04;52.27;96338.91;1749972;82;21196;-83
2021/04/21 12:06:12;;;;;;;6.42;4.80;;;;;;;11.98;52.57;96337.98;1743758;82;21139;-83
2021/04/21 12:09:00;;;;;;;6.62;4.40;;;;;;;11.89;53.62;96340.52;1799765;79;23578;-83
2021/04/21 12:11:34;;;;;;;4.72;3.05;;;;;;;11.78;54.66;96343.85;1754945;80;21658;-83
2021/04/21 12:14:02;;;;;;;6.72;4.65;;;;;;;11.77;53.60;96350.78;1762428;80;21278;-83
2021/04/21 12:16:33;;;;;;;4.65;3.15;;;;;;;11.68;55.39;96337.38;1735171;80;21228;-83